KGUP

Details ICAO KGUP (GUP)
Name Gallup Muni
Region United States
Timezone America/Denver (UTC-7.0)
Plans Departing 10
Arriving 8
Stats Elevation 6,472 ft / 1,973 m (AMSL)
Location 35.511058° -108.789303°
Runways 1
Magnetic Variation 9.485° E
Sunrise 2017-12-12 14:16:43 UTC / 2017-12-12 07:16:43 Local
Sunset 2017-12-13 00:04:12 UTC / 2017-12-12 17:04:12 Local
Advertisement - Login to hide

Runways

ID Width Length Bearing (true) Bearing (mag) Surface Threshold Offset Overrun Length
06 100 ft / 30 m 7,301 ft / 2,225 m 73.81° 64.32° Asphalt 0 ft / 0 m 0 ft / 0 m
24 100 ft / 30 m 7,301 ft / 2,225 m 253.82° 244.33° Asphalt 0 ft / 0 m 0 ft / 0 m

Approach Navaids

Runway Type Ident Frequency Range Bearing (true) Bearing (mag) Slope Elevation
06 Localiser IGUP 111.70 MHz 18 nm / 33 km 73.82° 64.34° - 6,484 ft / 1,976 m (AMSL)
06 DME IGUP 111.70 MHz 18 nm / 33 km - - - 6,499 ft / 1,981 m (AMSL)

Map

Weather


0- 5 10 15 20 25 30 35+ Temperature / ° C

Clouds and Precipitation
Forecast for 2017-12-12 18:00 UTC. Updated 39 minutes ago

Ground ~20,000 ft ~40,000 ft Winds

METAR

KGUP 121653Z AUTO 00000KT 10SM CLR M01/M19 A3052 RMK AO2 SLP406 T10061194

TAF

KGUP 121728Z 1218/1318 33006KT P6SM SKC FM130300 05003KT P6SM SKC FM131500 VRB05KT P6SM SKC

Frequencies

Recorded 118.37 MHz ASOS
Unicom 122.95 MHz CTAF/UNICOM
Warning: Do not use this data for real-world aviation or navigation. No guarantee of current accuracy is given.